Аэропорт: Жуляны. Киев

ICAO: UKKK

METAR:
2018/09/23 11:00
UKKK 231100Z 28004MPS 9999 BKN043 15/07 Q1017 R26/CLRD70 NOSIG
METAR:
2018/09/23 12:11
TAF UKKK 231104Z 2312/2412 25004G09MPS 9999 BKN020 
      TEMPO 2315/2324 20006G12MPS 
     FM240000 18006G12MPS 4000 -RA BR OVC007 
      TEMPO 2400/2412 23011G17MPS 1000 SHRA BKN004 BKN012CB